createdAt,value
2019-04-29T00:00:35.663Z,12.07
2019-04-29T00:01:16.256Z,11.99
2019-04-29T00:01:56.814Z,12.02
2019-04-29T00:02:37.363Z,12.02
2019-04-29T00:03:17.927Z,11.97
2019-04-29T00:03:58.518Z,11.99
2019-04-29T00:04:39.192Z,12
2019-04-29T00:05:19.759Z,12
2019-04-29T00:06:00.343Z,11.95
2019-04-29T00:06:40.914Z,12.12
2019-04-29T00:07:21.479Z,12.1
2019-04-29T00:08:02.201Z,12.12
2019-04-29T00:08:42.783Z,12.17
2019-04-29T00:09:23.340Z,12.15
2019-04-29T00:10:03.898Z,12.13
2019-04-29T00:10:44.467Z,12.15
2019-04-29T00:11:25.052Z,12.15
2019-04-29T00:12:05.639Z,12.12
2019-04-29T00:12:46.204Z,12.15
2019-04-29T00:13:26.775Z,12.13
2019-04-29T00:14:07.372Z,12.07
2019-04-29T00:14:47.930Z,12
2019-04-29T00:15:28.502Z,12.02
2019-04-29T00:16:09.063Z,12.17
2019-04-29T00:16:49.614Z,12.12
2019-04-29T00:17:30.178Z,12.12
2019-04-29T00:18:10.771Z,12.15
2019-04-29T00:18:51.340Z,12.18
2019-04-29T00:19:31.902Z,12.2
2019-04-29T00:20:12.518Z,12.18
2019-04-29T00:20:53.118Z,12.15
2019-04-29T00:21:33.649Z,12.1
2019-04-29T00:22:14.216Z,12.04
2019-04-29T00:22:54.769Z,11.99
2019-04-29T00:23:35.346Z,12.02
2019-04-29T00:24:15.935Z,12.04
2019-04-29T00:24:56.545Z,11.94
2019-04-29T00:25:37.098Z,11.97
2019-04-29T00:26:17.687Z,12.06
2019-04-29T00:26:58.276Z,12.06
2019-04-29T00:27:38.901Z,11.99
2019-04-29T00:28:19.479Z,12.04
2019-04-29T00:29:00.056Z,11.99
2019-04-29T00:29:40.648Z,12.03
2019-04-29T00:30:21.227Z,12.02
2019-04-29T00:31:01.818Z,12.06
2019-04-29T00:31:42.378Z,11.99
2019-04-29T00:32:22.945Z,12.02
2019-04-29T00:33:03.539Z,12
2019-04-29T00:33:44.123Z,11.9
2019-04-29T00:34:24.708Z,11.97
2019-04-29T00:35:05.315Z,11.97
2019-04-29T00:35:45.910Z,11.94
2019-04-29T00:36:26.499Z,11.94
2019-04-29T00:37:07.081Z,11.88
2019-04-29T00:37:47.666Z,11.88
2019-04-29T00:38:28.260Z,11.83
2019-04-29T00:39:08.808Z,11.8
2019-04-29T00:39:49.386Z,11.87
2019-04-29T00:40:29.945Z,11.81
2019-04-29T00:41:10.481Z,11.84
2019-04-29T00:41:51.050Z,11.8
2019-04-29T00:42:31.612Z,11.81
2019-04-29T00:43:12.202Z,11.8
2019-04-29T00:43:52.747Z,11.88
2019-04-29T00:44:33.315Z,11.87
2019-04-29T00:45:13.888Z,11.86
2019-04-29T00:45:54.454Z,11.8
2019-04-29T00:46:35.064Z,11.75
2019-04-29T00:47:15.605Z,11.73
2019-04-29T00:47:56.149Z,11.75
2019-04-29T00:48:36.836Z,11.77
2019-04-29T00:49:17.422Z,11.66
2019-04-29T00:49:58.045Z,11.62
2019-04-29T00:50:38.565Z,11.77
2019-04-29T00:51:19.129Z,11.68
2019-04-29T00:51:59.686Z,11.65
2019-04-29T00:52:40.273Z,11.77
2019-04-29T00:53:20.893Z,11.69
2019-04-29T00:54:01.438Z,11.69
2019-04-29T00:54:41.977Z,11.62
2019-04-29T00:55:22.570Z,11.66
2019-04-29T00:56:03.185Z,11.6
2019-04-29T00:56:43.799Z,11.63
2019-04-29T00:57:24.330Z,11.62
2019-04-29T00:58:04.901Z,11.72
2019-04-29T00:58:45.509Z,11.65
2019-04-29T00:59:26.065Z,11.68
2019-04-29T01:00:06.710Z,11.75
2019-04-29T01:00:47.212Z,11.66
2019-04-29T01:01:27.802Z,11.72
2019-04-29T01:02:08.385Z,11.75
2019-04-29T01:05:07.158Z,11.7
2019-04-29T01:05:47.779Z,11.6
2019-04-29T01:06:28.318Z,11.7
2019-04-29T01:07:08.885Z,11.7
2019-04-29T01:07:49.504Z,11.7
2019-04-29T01:08:30.090Z,11.66
2019-04-29T01:09:10.723Z,11.72
2019-04-29T01:09:51.290Z,11.78
2019-04-29T01:10:31.845Z,11.77
2019-04-29T01:11:12.395Z,11.78
2019-04-29T01:11:53.350Z,11.75
2019-04-29T01:12:33.936Z,11.78
2019-04-29T01:13:14.527Z,11.77
2019-04-29T01:13:55.094Z,11.77
2019-04-29T01:14:35.659Z,11.8
2019-04-29T01:15:16.216Z,11.78
2019-04-29T01:15:56.854Z,11.72
2019-04-29T01:16:37.418Z,11.77
2019-04-29T01:17:17.994Z,11.73
2019-04-29T01:17:58.543Z,11.69
2019-04-29T01:18:39.134Z,11.77
2019-04-29T01:19:19.737Z,11.73
2019-04-29T01:20:00.347Z,11.73
2019-04-29T01:20:40.909Z,11.68
2019-04-29T01:21:21.466Z,11.78
2019-04-29T01:22:02.059Z,11.6
2019-04-29T01:22:42.673Z,11.68
2019-04-29T01:23:23.236Z,11.63
2019-04-29T01:24:03.788Z,11.62
2019-04-29T01:24:44.329Z,11.66
2019-04-29T01:25:24.873Z,11.65
2019-04-29T01:26:05.456Z,11.72
2019-04-29T01:26:46.025Z,11.66
2019-04-29T01:27:26.594Z,11.69
2019-04-29T01:28:07.146Z,11.54
2019-04-29T01:28:49.397Z,11.65
2019-04-29T01:29:28.265Z,11.57
2019-04-29T01:30:08.833Z,11.59
2019-04-29T01:30:49.394Z,11.55
2019-04-29T01:31:30.080Z,11.57
2019-04-29T01:32:10.596Z,11.57
2019-04-29T01:32:51.151Z,11.57
2019-04-29T01:33:31.788Z,11.54
2019-04-29T01:34:12.352Z,11.54
2019-04-29T01:34:52.931Z,11.66
2019-04-29T01:37:51.757Z,11.6
2019-04-29T01:38:32.326Z,11.59
2019-04-29T01:39:12.889Z,11.54
2019-04-29T01:39:53.611Z,11.57
2019-04-29T01:40:34.190Z,11.63
2019-04-29T01:41:14.778Z,11.59
2019-04-29T01:41:55.368Z,11.6
2019-04-29T01:42:35.955Z,11.54
2019-04-29T01:43:16.527Z,11.45
2019-04-29T01:43:57.113Z,11.35
2019-04-29T01:44:37.731Z,11.41
2019-04-29T01:45:18.364Z,11.36
2019-04-29T01:45:58.912Z,11.32
2019-04-29T01:46:39.526Z,11.25
2019-04-29T01:47:20.160Z,11.26
2019-04-29T01:48:00.762Z,11.22
2019-04-29T01:48:41.315Z,11.11
2019-04-29T01:49:21.867Z,11.08
2019-04-29T01:50:02.478Z,11.14
2019-04-29T01:50:43.087Z,11.04
2019-04-29T01:51:23.651Z,11.07
2019-04-29T01:52:04.206Z,11.12
2019-04-29T01:52:44.765Z,11.05
2019-04-29T01:53:25.325Z,11.04
2019-04-29T01:54:05.886Z,11.08
2019-04-29T01:54:46.454Z,11.04
2019-04-29T01:55:27.058Z,11
2019-04-29T01:56:07.816Z,11.1
2019-04-29T01:56:48.369Z,11.08
2019-04-29T01:57:28.924Z,11.05
2019-04-29T01:58:09.512Z,11.07
2019-04-29T01:58:50.084Z,11.17
2019-04-29T01:59:30.632Z,11.04
2019-04-29T02:00:12.331Z,11.15
2019-04-29T02:00:51.769Z,11.19
2019-04-29T02:01:32.365Z,11.11
2019-04-29T02:02:12.948Z,11.18
2019-04-29T02:02:53.584Z,11.12
2019-04-29T02:03:34.146Z,11.12
2019-04-29T02:04:14.706Z,11.08
2019-04-29T02:04:55.406Z,11.18
2019-04-29T02:05:35.961Z,11.11
2019-04-29T02:06:16.692Z,11.12
2019-04-29T02:06:57.079Z,11.14
2019-04-29T02:07:37.640Z,11.14
2019-04-29T02:08:18.227Z,11.18
2019-04-29T02:08:58.795Z,11.27
2019-04-29T02:09:39.378Z,11.22
2019-04-29T02:10:19.951Z,11.26
2019-04-29T02:11:00.515Z,11.23
2019-04-29T02:11:41.316Z,11.14
2019-04-29T02:12:21.874Z,11.19
2019-04-29T02:13:02.476Z,11.22
2019-04-29T02:13:43.043Z,11.26
2019-04-29T02:14:23.599Z,11.23
2019-04-29T02:15:04.136Z,11.25
2019-04-29T02:15:44.686Z,11.23
2019-04-29T02:16:25.257Z,11.22
2019-04-29T02:17:05.806Z,11.25
2019-04-29T02:17:46.372Z,11.27
2019-04-29T02:18:26.943Z,11.08
2019-04-29T02:19:07.528Z,11.1
2019-04-29T02:19:48.093Z,11.07
2019-04-29T02:20:28.665Z,11.12
2019-04-29T02:21:09.230Z,11.02
2019-04-29T02:21:49.791Z,11.07
2019-04-29T02:22:30.349Z,11.04
2019-04-29T02:23:10.941Z,11.02
2019-04-29T02:23:51.492Z,11.08
2019-04-29T02:24:32.055Z,11.04
2019-04-29T02:25:12.635Z,11.05
2019-04-29T02:25:53.249Z,11
2019-04-29T02:26:33.799Z,11.05
2019-04-29T02:27:14.512Z,11.11
2019-04-29T02:27:55.096Z,11.05
2019-04-29T02:28:35.657Z,11.02
2019-04-29T02:29:16.207Z,11.1
2019-04-29T02:29:56.767Z,11.02
2019-04-29T02:30:37.333Z,11.02
2019-04-29T02:31:17.880Z,11.05
2019-04-29T02:31:58.456Z,11.08
2019-04-29T02:32:39.065Z,11.05
2019-04-29T02:33:19.612Z,11.07
2019-04-29T02:34:00.266Z,11.05
2019-04-29T02:34:40.823Z,11.1
2019-04-29T02:35:21.380Z,11.07
2019-04-29T02:36:01.994Z,11.05
2019-04-29T02:36:42.544Z,10.97
2019-04-29T02:37:23.124Z,11.07
2019-04-29T02:38:03.682Z,11.14
2019-04-29T02:38:44.244Z,11.17
2019-04-29T02:39:24.837Z,11.12
2019-04-29T02:40:05.422Z,11.08
2019-04-29T02:40:45.947Z,11.1
2019-04-29T02:41:26.519Z,11.07
2019-04-29T02:43:39.354Z,11.18
2019-04-29T02:44:19.935Z,11.18
2019-04-29T02:45:00.487Z,11.12
2019-04-29T02:45:41.030Z,11.22
2019-04-29T02:46:21.610Z,11.27
2019-04-29T02:47:02.180Z,11.14
2019-04-29T02:47:42.745Z,11.15
2019-04-29T02:48:23.295Z,11.12
2019-04-29T02:49:03.848Z,11.17
2019-04-29T02:49:44.518Z,11.22
2019-04-29T02:50:25.087Z,11.22
2019-04-29T02:51:05.718Z,11.18
2019-04-29T02:51:46.293Z,11.15
2019-04-29T02:52:26.836Z,11.12
2019-04-29T02:53:07.392Z,11.14
2019-04-29T02:53:47.942Z,11.11
2019-04-29T02:54:28.518Z,11.19
2019-04-29T02:55:09.090Z,11.17
2019-04-29T02:55:49.675Z,11.23
2019-04-29T02:56:30.275Z,11.22
2019-04-29T02:57:10.870Z,11.18
2019-04-29T02:57:51.445Z,11.17
2019-04-29T02:58:32.004Z,11.11
2019-04-29T02:59:12.547Z,11.08
2019-04-29T02:59:53.145Z,11.05
2019-04-29T03:00:33.721Z,11.12
2019-04-29T03:01:14.290Z,11.08
2019-04-29T03:01:54.858Z,11.12
2019-04-29T03:02:35.451Z,11.17
2019-04-29T03:03:15.988Z,11.12
2019-04-29T03:03:56.566Z,11.12
2019-04-29T03:04:37.147Z,11.17
2019-04-29T03:05:17.678Z,11.18
2019-04-29T03:05:58.247Z,11.15
2019-04-29T03:06:38.813Z,11.15
2019-04-29T03:07:19.420Z,11.08
2019-04-29T03:08:00.049Z,11.1
2019-04-29T03:08:40.590Z,11.1
2019-04-29T03:11:55.025Z,11.12
2019-04-29T03:12:35.677Z,11.07
2019-04-29T03:13:16.211Z,11.1
2019-04-29T03:13:56.804Z,11.18
2019-04-29T03:14:37.403Z,11.12
2019-04-29T03:15:17.950Z,11.04
2019-04-29T03:15:58.526Z,11.07
2019-04-29T03:16:39.127Z,11.1
2019-04-29T03:17:20.330Z,11.1
2019-04-29T03:18:00.815Z,11.12
2019-04-29T03:18:41.382Z,10.96
2019-04-29T03:19:21.922Z,11
2019-04-29T03:20:02.492Z,11.07
2019-04-29T03:20:43.088Z,11
2019-04-29T03:21:23.706Z,11.07
2019-04-29T03:22:04.300Z,11.08
2019-04-29T03:22:44.872Z,11.07
2019-04-29T03:23:25.574Z,11.07
2019-04-29T03:24:06.134Z,11.04
2019-04-29T03:24:46.905Z,11.17
2019-04-29T03:25:27.378Z,11.11
2019-04-29T03:26:07.941Z,11.07
2019-04-29T03:26:48.472Z,11
2019-04-29T03:27:29.040Z,11.02
2019-04-29T03:28:09.664Z,11.05
2019-04-29T03:28:50.237Z,11.04
2019-04-29T03:29:30.795Z,11.04
2019-04-29T03:30:11.367Z,11.05
2019-04-29T03:30:51.920Z,11.05
2019-04-29T03:31:38.542Z,10.96
2019-04-29T03:32:13.017Z,11
2019-04-29T03:32:53.592Z,10.96
2019-04-29T03:33:34.856Z,10.96
2019-04-29T03:34:15.408Z,10.97
2019-04-29T03:34:55.993Z,11.07
2019-04-29T03:35:36.566Z,10.99
2019-04-29T03:36:17.127Z,11.05
2019-04-29T03:36:57.684Z,10.96
2019-04-29T03:37:38.337Z,11.05
2019-04-29T03:38:18.808Z,11.1
2019-04-29T03:38:59.356Z,10.96
2019-04-29T03:39:39.924Z,11
2019-04-29T03:40:20.523Z,11.04
2019-04-29T03:41:01.086Z,10.92
2019-04-29T03:41:41.746Z,10.94
2019-04-29T03:42:22.314Z,10.97
2019-04-29T03:43:02.853Z,10.99
2019-04-29T03:43:43.446Z,11.02
2019-04-29T03:44:24.043Z,11.04
2019-04-29T03:45:04.637Z,10.94
2019-04-29T03:45:45.234Z,10.92
2019-04-29T03:46:25.798Z,10.9
2019-04-29T03:47:06.346Z,11.05
2019-04-29T03:47:46.897Z,10.93
2019-04-29T03:48:27.471Z,10.92
2019-04-29T03:49:08.041Z,10.94
2019-04-29T03:49:48.598Z,10.93
2019-04-29T03:50:29.167Z,10.93
2019-04-29T03:51:09.733Z,10.92
2019-04-29T03:51:50.284Z,10.97
2019-04-29T03:52:30.891Z,11
2019-04-29T03:53:11.455Z,11
2019-04-29T03:53:52.040Z,10.94
2019-04-29T03:54:32.659Z,10.87
2019-04-29T03:55:13.161Z,10.92
2019-04-29T03:55:53.789Z,11
2019-04-29T03:56:34.356Z,11.04
2019-04-29T03:57:15.012Z,10.93
2019-04-29T03:57:55.468Z,10.92
2019-04-29T03:58:36.068Z,10.9
2019-04-29T03:59:16.589Z,11.02
2019-04-29T03:59:57.288Z,11
2019-04-29T04:00:37.726Z,10.97
2019-04-29T04:01:18.269Z,11.02
2019-04-29T04:01:58.823Z,10.97
2019-04-29T04:02:39.376Z,10.9
2019-04-29T04:03:19.975Z,10.99
2019-04-29T04:04:00.569Z,10.93
2019-04-29T04:04:41.154Z,10.92
2019-04-29T04:05:21.748Z,10.9
2019-04-29T04:06:02.299Z,11
2019-04-29T04:06:42.882Z,10.92
2019-04-29T04:07:23.469Z,11.02
2019-04-29T04:08:04.131Z,10.93
2019-04-29T04:08:44.685Z,10.92
2019-04-29T04:09:25.320Z,10.99
2019-04-29T04:10:06.042Z,11.05
2019-04-29T04:10:46.667Z,10.93
2019-04-29T04:11:27.324Z,10.93
2019-04-29T04:12:08.006Z,10.97
2019-04-29T04:12:48.700Z,10.97
2019-04-29T04:13:29.373Z,11.1
2019-04-29T04:14:09.950Z,11.04
2019-04-29T04:14:50.514Z,11
2019-04-29T04:15:31.117Z,11.07
2019-04-29T04:16:11.689Z,10.97
2019-04-29T04:16:52.287Z,11.05
2019-04-29T04:17:32.841Z,11.02
2019-04-29T04:18:13.449Z,11.05
2019-04-29T04:18:53.991Z,11.08
2019-04-29T04:19:34.745Z,11.05
2019-04-29T04:20:16.054Z,11.04
2019-04-29T04:20:57.047Z,11.08
2019-04-29T04:21:38.192Z,11.05
2019-04-29T04:22:19.086Z,11
2019-04-29T04:22:59.860Z,10.94
2019-04-29T04:23:40.432Z,10.92
2019-04-29T04:24:21.008Z,10.9
2019-04-29T04:25:01.626Z,10.99
2019-04-29T04:25:42.159Z,11.02
2019-04-29T04:26:22.729Z,10.9
2019-04-29T04:27:03.317Z,10.96
2019-04-29T04:27:43.896Z,11
2019-04-29T04:28:24.460Z,10.92
2019-04-29T04:29:05.027Z,10.99
2019-04-29T04:29:45.592Z,11.02
2019-04-29T04:30:26.157Z,10.96
2019-04-29T04:31:07.189Z,10.9
2019-04-29T04:31:47.308Z,11.02
2019-04-29T04:32:27.880Z,11
2019-04-29T04:33:08.441Z,11.02
2019-04-29T04:33:49.008Z,10.92
2019-04-29T04:34:29.637Z,10.93
2019-04-29T04:35:10.200Z,10.96
2019-04-29T04:35:50.760Z,11.08
2019-04-29T04:36:31.565Z,11.11
2019-04-29T04:37:12.149Z,11.07
2019-04-29T04:37:52.704Z,11.07
2019-04-29T04:38:33.265Z,11.08
2019-04-29T04:39:13.826Z,11.04
2019-04-29T04:39:54.438Z,11.02
2019-04-29T04:40:36.021Z,11.07
2019-04-29T04:41:16.776Z,11.08
2019-04-29T04:44:31.400Z,10.93
2019-04-29T04:45:12.207Z,10.96
2019-04-29T04:45:53.015Z,10.93
2019-04-29T04:46:33.834Z,10.94
2019-04-29T04:47:14.715Z,10.92
2019-04-29T04:47:55.579Z,10.87
2019-04-29T04:48:36.430Z,10.9
2019-04-29T04:49:17.541Z,11.02
2019-04-29T04:49:59.480Z,11
2019-04-29T04:50:40.261Z,10.9
2019-04-29T04:53:39.206Z,10.89
2019-04-29T04:54:20.091Z,10.87
2019-04-29T04:55:01.029Z,10.9
2019-04-29T04:55:41.867Z,10.92
2019-04-29T04:56:22.743Z,11
2019-04-29T04:57:03.459Z,10.97
2019-04-29T04:57:44.013Z,10.92
2019-04-29T04:58:24.572Z,10.94
2019-04-29T04:59:05.181Z,10.93
2019-04-29T04:59:45.755Z,10.93
2019-04-29T05:00:26.318Z,11.02
2019-04-29T05:01:06.938Z,11.05
2019-04-29T05:01:47.563Z,10.97
2019-04-29T05:02:28.133Z,10.93
2019-04-29T05:03:08.696Z,10.99
2019-04-29T05:03:49.248Z,10.99
2019-04-29T05:04:29.810Z,11.1
2019-04-29T05:05:10.373Z,11.04
2019-04-29T05:05:50.960Z,11.02
2019-04-29T05:06:31.528Z,11.02
2019-04-29T05:07:12.092Z,11.05
2019-04-29T05:07:52.658Z,11.05
2019-04-29T05:08:33.215Z,11.05
2019-04-29T05:09:13.774Z,11.15
2019-04-29T05:09:54.334Z,11.05
2019-04-29T05:10:35.059Z,11.18
2019-04-29T05:11:15.991Z,11.18
2019-04-29T05:11:57.406Z,11.22
2019-04-29T05:12:38.183Z,11.14
2019-04-29T05:13:27.681Z,11.17
2019-04-29T05:14:00.043Z,11.14
2019-04-29T05:17:14.160Z,11.08
2019-04-29T05:17:54.721Z,11.17
2019-04-29T05:18:35.293Z,11.11
2019-04-29T05:19:15.924Z,11.18
2019-04-29T05:19:56.491Z,11.11
2019-04-29T05:20:37.090Z,11.23
2019-04-29T05:21:17.625Z,11.23
2019-04-29T05:21:58.220Z,11.22
2019-04-29T05:22:38.773Z,11.26
2019-04-29T05:23:19.338Z,11.25
2019-04-29T05:23:59.906Z,11.26
2019-04-29T05:24:40.574Z,11.23
2019-04-29T05:25:21.421Z,11.27
2019-04-29T05:26:02.700Z,11.33
2019-04-29T05:26:43.622Z,11.22
2019-04-29T05:27:24.426Z,11.25
2019-04-29T05:28:05.208Z,11.23
2019-04-29T05:28:46.131Z,11.18
2019-04-29T05:29:28.663Z,11.26
2019-04-29T05:30:07.457Z,11.36
2019-04-29T05:30:48.035Z,11.33
2019-04-29T05:31:28.654Z,11.37
2019-04-29T05:32:09.269Z,11.4
2019-04-29T05:32:49.973Z,11.41
2019-04-29T05:33:30.568Z,11.36
2019-04-29T05:34:11.172Z,11.33
2019-04-29T05:34:54.825Z,11.35
2019-04-29T05:35:32.601Z,11.44
2019-04-29T05:36:13.189Z,11.47
2019-04-29T05:36:53.790Z,11.51
2019-04-29T05:37:34.486Z,11.54
2019-04-29T05:38:15.183Z,11.5
2019-04-29T05:38:55.874Z,11.62
2019-04-29T05:39:36.621Z,11.63
2019-04-29T05:40:17.272Z,11.7
2019-04-29T05:40:57.893Z,11.66
2019-04-29T05:41:38.488Z,11.8
2019-04-29T05:42:19.172Z,11.66
2019-04-29T05:42:59.912Z,11.75
2019-04-29T05:43:40.542Z,11.75
2019-04-29T05:44:21.182Z,11.87
2019-04-29T05:45:01.827Z,11.88
2019-04-29T05:45:46.085Z,11.95
2019-04-29T05:46:23.387Z,12.06
2019-04-29T05:47:03.968Z,12.15
2019-04-29T05:47:44.654Z,12.22
2019-04-29T05:48:27.546Z,12.15
2019-04-29T05:49:07.080Z,12.09
2019-04-29T05:49:46.447Z,12.1
2019-04-29T05:50:27.085Z,12.03
2019-04-29T05:51:07.711Z,11.94
2019-04-29T05:51:48.316Z,12
2019-04-29T05:52:30.127Z,11.81
2019-04-29T05:53:11.254Z,11.83
2019-04-29T05:53:54.792Z,11.8
2019-04-29T05:54:31.591Z,11.86
2019-04-29T05:55:13.672Z,11.7
2019-04-29T05:55:52.591Z,11.65
2019-04-29T05:56:32.702Z,11.7
2019-04-29T05:57:13.314Z,11.66
2019-04-29T05:57:55.403Z,11.62
2019-04-29T05:58:37.662Z,11.55
2019-04-29T05:59:15.259Z,11.5
2019-04-29T05:59:55.888Z,11.47
2019-04-29T06:00:36.515Z,11.45
2019-04-29T06:01:17.310Z,11.44
2019-04-29T06:01:57.818Z,11.36
2019-04-29T06:02:38.910Z,11.48
2019-04-29T06:03:18.928Z,11.5
2019-04-29T06:03:59.501Z,11.47
2019-04-29T06:04:40.068Z,11.5
2019-04-29T06:05:20.635Z,11.37
2019-04-29T06:06:01.186Z,11.32
2019-04-29T06:06:41.763Z,11.33
2019-04-29T06:07:23.208Z,11.17
2019-04-29T06:08:02.993Z,11.27
2019-04-29T06:08:43.424Z,11.26
2019-04-29T06:09:23.997Z,11.26
2019-04-29T06:10:04.571Z,11.22
2019-04-29T06:10:45.173Z,11.29
2019-04-29T06:11:25.731Z,11.26
2019-04-29T06:12:06.741Z,11.17
2019-04-29T06:12:47.331Z,11.23
2019-04-29T06:13:27.938Z,11.36
2019-04-29T06:14:08.505Z,11.32
2019-04-29T06:14:49.072Z,11.3
2019-04-29T06:15:29.656Z,11.25
2019-04-29T06:16:10.257Z,11.23
2019-04-29T06:16:52.794Z,11.22
2019-04-29T06:17:31.425Z,11.25
2019-04-29T06:18:11.943Z,11.22
2019-04-29T06:18:59.285Z,11.25
2019-04-29T06:19:35.055Z,11.22
2019-04-29T06:20:17.493Z,11.3
2019-04-29T06:21:07.788Z,11.25
2019-04-29T06:21:35.023Z,11.23
2019-04-29T06:22:15.593Z,11.33
2019-04-29T06:22:56.178Z,11.36
2019-04-29T06:23:36.738Z,11.36
2019-04-29T06:24:17.327Z,11.33
2019-04-29T06:24:57.907Z,11.36
2019-04-29T06:25:38.490Z,11.29
2019-04-29T06:26:19.046Z,11.37
2019-04-29T06:26:59.627Z,11.29
2019-04-29T06:27:40.223Z,11.18
2019-04-29T06:28:21.535Z,11.3
2019-04-29T06:29:01.444Z,11.22
2019-04-29T06:29:42.044Z,11.27
2019-04-29T06:30:22.594Z,11.3
2019-04-29T06:31:03.263Z,11.33
2019-04-29T06:31:43.855Z,11.36
2019-04-29T06:32:26.340Z,11.32
2019-04-29T06:33:05.020Z,11.4
2019-04-29T06:33:45.613Z,11.36
2019-04-29T06:34:26.203Z,11.32
2019-04-29T06:35:10.515Z,11.32
2019-04-29T06:35:48.862Z,11.3
2019-04-29T06:36:27.921Z,11.37
2019-04-29T06:37:08.538Z,11.33
2019-04-29T06:37:49.098Z,11.37
2019-04-29T06:38:29.709Z,11.41
2019-04-29T06:39:10.225Z,11.41
2019-04-29T06:39:50.857Z,11.4
2019-04-29T06:40:35.282Z,11.36
2019-04-29T06:41:11.996Z,11.36
2019-04-29T06:41:52.572Z,11.3
2019-04-29T06:42:33.507Z,11.33
2019-04-29T06:43:13.718Z,11.36
2019-04-29T06:43:56.099Z,11.37
2019-04-29T06:44:34.847Z,11.29
2019-04-29T06:45:15.407Z,11.29
2019-04-29T06:45:55.973Z,11.35
2019-04-29T06:46:36.536Z,11.32
2019-04-29T06:47:18.612Z,11.27
2019-04-29T06:47:59.229Z,11.33
2019-04-29T06:48:39.785Z,11.33
2019-04-29T06:49:20.482Z,11.36
2019-04-29T06:50:01.050Z,11.37
2019-04-29T06:50:41.662Z,11.35
2019-04-29T06:51:22.233Z,11.41
2019-04-29T06:52:02.791Z,11.41
2019-04-29T06:52:43.362Z,11.43
2019-04-29T06:53:23.977Z,11.4
2019-04-29T06:54:04.547Z,11.4
2019-04-29T06:54:45.134Z,11.4
2019-04-29T06:55:25.703Z,11.36
2019-04-29T06:56:08.956Z,11.36
2019-04-29T06:56:46.854Z,11.35
2019-04-29T06:57:27.404Z,11.15
2019-04-29T06:58:07.983Z,11.22
2019-04-29T06:58:49.090Z,11.25
2019-04-29T06:59:29.134Z,11.29
2019-04-29T07:00:09.708Z,11.29
2019-04-29T07:00:50.955Z,11.26
2019-04-29T07:01:33.022Z,11.32
2019-04-29T07:02:14.244Z,11.19
2019-04-29T07:02:51.935Z,11.33
2019-04-29T07:03:32.508Z,11.19
2019-04-29T07:04:13.059Z,11.27
2019-04-29T07:04:53.623Z,11.36
2019-04-29T07:05:34.182Z,11.37
2019-04-29T07:06:14.738Z,11.33
2019-04-29T07:06:57.392Z,11.37
2019-04-29T07:07:35.898Z,11.3
2019-04-29T07:08:16.464Z,11.33
2019-04-29T07:08:57.034Z,11.35
2019-04-29T07:09:37.585Z,11.35
2019-04-29T07:10:21.256Z,11.36
2019-04-29T07:11:00.926Z,11.36
2019-04-29T07:11:39.339Z,11.36
2019-04-29T07:12:19.891Z,11.44
2019-04-29T07:13:00.453Z,11.41
2019-04-29T07:13:41.022Z,11.35
2019-04-29T07:14:21.587Z,11.41
2019-04-29T07:15:02.198Z,11.37
2019-04-29T07:15:43.391Z,11.36
2019-04-29T07:16:26.793Z,11.36
2019-04-29T07:17:05.512Z,11.3
2019-04-29T07:17:44.430Z,11.47
2019-04-29T07:18:24.998Z,11.41
2019-04-29T07:19:05.559Z,11.36
2019-04-29T07:19:46.117Z,11.41
2019-04-29T07:20:26.680Z,11.41
2019-04-29T07:21:07.422Z,11.41
2019-04-29T07:21:51.373Z,11.32
2019-04-29T07:22:30.960Z,11.35
2019-04-29T07:23:08.936Z,11.3
2019-04-29T07:23:49.511Z,11.3
2019-04-29T07:24:30.067Z,11.25
2019-04-29T07:25:10.640Z,11.22
2019-04-29T07:25:51.199Z,11.23
2019-04-29T07:26:31.760Z,11.32
2019-04-29T07:27:12.313Z,11.29
2019-04-29T07:27:52.892Z,11.26
2019-04-29T07:28:33.457Z,11.23
2019-04-29T07:29:14.023Z,11.27
2019-04-29T07:29:54.597Z,11.33
2019-04-29T07:30:37.530Z,11.23
2019-04-29T07:31:15.683Z,11.25
2019-04-29T07:31:56.245Z,11.27
2019-04-29T07:32:36.809Z,11.32
2019-04-29T07:33:21.661Z,11.4
2019-04-29T07:33:59.086Z,11.41
2019-04-29T07:34:39.522Z,11.36
2019-04-29T07:35:19.036Z,11.4
2019-04-29T07:36:10.257Z,11.37
2019-04-29T07:36:40.136Z,11.44
2019-04-29T07:37:20.698Z,11.51
2019-04-29T07:38:04.387Z,11.48
2019-04-29T07:38:43.451Z,11.57
2019-04-29T07:39:22.427Z,11.62
2019-04-29T07:40:03.592Z,11.63
2019-04-29T07:40:44.632Z,11.55
2019-04-29T07:41:24.100Z,11.52
2019-04-29T07:42:04.653Z,11.51
2019-04-29T07:42:45.208Z,11.57
2019-04-29T07:43:25.808Z,11.52
2019-04-29T07:44:06.361Z,11.52
2019-04-29T07:44:48.749Z,11.55
2019-04-29T07:45:28.053Z,11.54
2019-04-29T07:46:08.037Z,11.59
2019-04-29T07:46:56.547Z,11.6
2019-04-29T07:47:30.800Z,11.55
2019-04-29T07:48:09.752Z,11.6
2019-04-29T07:49:00.668Z,11.57
2019-04-29T07:49:30.879Z,11.6
2019-04-29T07:50:11.469Z,11.68
2019-04-29T07:50:52.027Z,11.7
2019-04-29T07:51:34.692Z,11.7
2019-04-29T07:52:14.405Z,11.68
2019-04-29T07:52:53.687Z,11.65
2019-04-29T07:53:40.429Z,11.6
2019-04-29T07:54:15.851Z,11.52
2019-04-29T07:54:56.265Z,11.55
2019-04-29T07:55:35.991Z,11.59
2019-04-29T07:56:16.575Z,11.59
2019-04-29T07:56:57.118Z,11.63
2019-04-29T07:57:37.685Z,11.7
2019-04-29T07:58:18.254Z,11.72
2019-04-29T07:59:02.603Z,11.75
2019-04-29T07:59:39.682Z,11.7
2019-04-29T08:00:19.969Z,11.66
2019-04-29T08:01:00.538Z,11.66
2019-04-29T08:01:41.130Z,11.68
2019-04-29T08:02:21.684Z,11.7
2019-04-29T08:03:02.245Z,11.73
2019-04-29T08:03:42.795Z,11.68
2019-04-29T08:04:23.358Z,11.72
2019-04-29T08:05:03.954Z,11.63
2019-04-29T08:05:44.545Z,11.69
2019-04-29T08:06:25.109Z,11.75
2019-04-29T08:07:05.658Z,11.77
2019-04-29T08:07:46.251Z,11.68
2019-04-29T08:08:26.811Z,11.65
2019-04-29T08:09:07.819Z,11.6
2019-04-29T08:09:47.945Z,11.75
2019-04-29T08:10:29.803Z,11.63
2019-04-29T08:11:09.091Z,11.65
2019-04-29T08:11:50.035Z,11.68
2019-04-29T08:12:30.622Z,11.63
2019-04-29T08:13:11.211Z,11.66
2019-04-29T08:13:51.820Z,11.54
2019-04-29T08:14:32.371Z,11.62
2019-04-29T08:15:12.949Z,11.7
2019-04-29T08:15:53.505Z,11.7
2019-04-29T08:16:34.071Z,11.6
2019-04-29T08:17:14.634Z,11.69
2019-04-29T08:18:05.850Z,11.66
2019-04-29T08:18:35.752Z,11.69
2019-04-29T08:19:16.357Z,11.65
2019-04-29T08:20:00.558Z,11.77
2019-04-29T08:20:39.652Z,11.75
2019-04-29T08:21:18.063Z,11.72
2019-04-29T08:21:58.633Z,11.7
2019-04-29T08:22:39.194Z,11.7
2019-04-29T08:23:19.771Z,11.63
2019-04-29T08:24:00.366Z,11.77
2019-04-29T08:24:40.948Z,11.7
2019-04-29T08:25:25.615Z,11.65
2019-04-29T08:26:02.750Z,11.72
2019-04-29T08:26:47.246Z,11.69
2019-04-29T08:27:23.234Z,11.72
2019-04-29T08:28:03.799Z,11.7
2019-04-29T08:28:44.383Z,11.55
2019-04-29T08:29:24.937Z,11.68
2019-04-29T08:30:06.611Z,11.55
2019-04-29T08:30:47.273Z,11.6
2019-04-29T08:31:26.662Z,11.52
2019-04-29T08:32:07.228Z,11.52
2019-04-29T08:32:47.780Z,11.51
2019-04-29T08:33:28.334Z,11.57
2019-04-29T08:34:08.903Z,11.6
2019-04-29T08:34:49.456Z,11.6
2019-04-29T08:35:32.590Z,11.62
2019-04-29T08:36:10.595Z,11.6
2019-04-29T08:39:09.484Z,11.65
2019-04-29T08:40:03.669Z,11.73
2019-04-29T08:40:30.615Z,11.77
2019-04-29T08:41:11.175Z,11.83
2019-04-29T08:41:51.750Z,11.7
2019-04-29T08:42:32.399Z,11.69
2019-04-29T08:43:15.813Z,11.73
2019-04-29T08:43:56.486Z,11.62
2019-04-29T08:44:34.045Z,11.73
2019-04-29T08:45:14.614Z,11.6
2019-04-29T08:45:55.177Z,11.68
2019-04-29T08:46:35.746Z,11.66
2019-04-29T08:47:16.316Z,11.65
2019-04-29T08:47:56.900Z,11.65
2019-04-29T08:48:37.502Z,11.63
2019-04-29T08:49:18.077Z,11.69
2019-04-29T08:49:58.637Z,11.66
2019-04-29T08:50:39.232Z,11.77
2019-04-29T08:51:19.806Z,11.63
2019-04-29T08:52:00.378Z,11.72
2019-04-29T08:52:40.927Z,11.65
2019-04-29T08:53:21.505Z,11.62
2019-04-29T08:54:02.059Z,11.75
2019-04-29T08:54:42.620Z,11.65
2019-04-29T08:55:26.498Z,11.72
2019-04-29T08:56:05.517Z,11.63
2019-04-29T08:57:01.580Z,11.65
2019-04-29T08:57:25.035Z,11.65
2019-04-29T08:58:06.820Z,11.68
2019-04-29T08:58:49.070Z,11.7
2019-04-29T08:59:26.760Z,11.72
2019-04-29T09:00:07.315Z,11.63
2019-04-29T09:00:51.262Z,11.65
2019-04-29T09:01:29.091Z,11.69
2019-04-29T09:02:10.065Z,11.75
2019-04-29T09:02:49.593Z,11.84
2019-04-29T09:03:39.880Z,11.78
2019-04-29T09:04:10.715Z,11.78
2019-04-29T09:04:53.578Z,11.78